Overview Statistics Trail Chart Weather Telemetry Raw packets
 

This is the latest recevied weather packets stored in our database for station/object KQ4WWD. If no packets are shown the sender has not sent any weather packets the latest 10 day(s).

<< 33 34 35 36 37 38 39 >>
Time Temp. Humidity Pressure Rain* Wind** Luminosity Snow
1788388670 26.67° C 92% 1013.9 hPa 0 mm - 12 W/m² -
1788388369 26.67° C 93% 1014.1 hPa 0 mm - 12 W/m² -
1788388063 26.67° C 93% 1013.9 hPa 0 mm - 12 W/m² -
1788387762 26.67° C 93% 1013.6 hPa 0 mm - 14 W/m² -
1788387457 26.67° C 93% 1013.6 hPa 0 mm - 16 W/m² -
1788387156 26.67° C 93% 1013.7 hPa 0 mm - 16 W/m² -
1788386852 27.22° C 93% 1013.4 hPa 0 mm - 16 W/m² -
1788386552 26.67° C 93% 1013.4 hPa 0 mm - 18 W/m² -
1788386247 27.22° C 93% 1013.3 hPa 0 mm - 20 W/m² -
1788385942 26.67° C 93% 1013.6 hPa 0 mm - 22 W/m² -
1788385638 26.67° C 93% 1013.7 hPa 0 mm - 23 W/m² -
1788385337 27.22° C 93% 1013.7 hPa 0 mm - 23 W/m² -
1788385032 27.22° C 93% 1013.7 hPa 0 mm - 28 W/m² -
1788384727 27.22° C 93% 1013.8 hPa 0 mm - 28 W/m² -
1788384427 27.22° C 93% 1013.6 hPa 1.78 mm - 31 W/m² -
1788384123 27.22° C 93% 1013.7 hPa 1.78 mm - 35 W/m² -
1788383819 26.67° C 93% 1013.7 hPa 6.1 mm - 29 W/m² -
1788383514 27.22° C 93% 1014 hPa 14.99 mm - 56 W/m² -
1788383214 27.78° C 93% 1014 hPa 10.67 mm - 115 W/m² -
1788382909 29.44° C 87% 1013.6 hPa 3.56 mm - 156 W/m² -
1788382607 30.56° C 84% 1013.5 hPa 1.78 mm - 160 W/m² -
1788382303 31.11° C 79% 1013.5 hPa 0 mm - 151 W/m² -
1788381998 32.22° C 74% 1013.8 hPa 0 mm - 250 W/m² -
1788381692 32.78° C 73% 1013.6 hPa 0 mm - 210 W/m² -
1788381388 33.33° C 71% 1013.2 hPa 0 mm - 270 W/m² -

* Rain latest hour (hover to see other rain measurements)
** Current wind speed in m/s (hover to see current wind gust speed)